Time;durP1;ratioP1;P1;durP2;ratioP2;P2;SDS_P1;SDS_P2;PMS_P1;PMS_P2;Temp;Humidity;BMP_temperature;BMP_pressure;BME280_temperature;BME280_humidity;BME280_pressure;Samples;Min_cycle;Max_cycle;Signal;HPM_P1;HPM_P2
2021/08/09 00:02:08;;;;;;;3.25;2.50;;;;;;;13.30;69.37;100309.91;10229132;29;20229;-75
2021/08/09 00:07:12;;;;;;;5.28;2.90;;;;;;;13.37;69.11;100307.53;10228108;29;20229;-75
2021/08/09 00:12:15;;;;;;;4.00;2.50;;;;;;;13.53;68.83;100309.66;10228618;29;20221;-75
2021/08/09 00:17:19;;;;;;;3.33;2.75;;;;;;;13.48;68.74;100305.53;10227151;29;20190;-75
2021/08/09 00:22:22;;;;;;;4.78;2.88;;;;;;;13.52;68.75;100299.84;10228582;29;20591;-75
2021/08/09 00:27:25;;;;;;;3.95;2.88;;;;;;;13.49;69.06;100298.28;10228507;28;20197;-75
2021/08/09 00:32:29;;;;;;;5.10;2.80;;;;;;;13.53;68.83;100301.56;10210816;29;20738;-75
2021/08/09 00:37:32;;;;;;;4.68;2.42;;;;;;;13.58;68.56;100296.56;10227330;29;20220;-75
2021/08/09 00:42:36;;;;;;;3.45;2.67;;;;;;;13.55;68.53;100297.72;10210582;29;20272;-75
2021/08/09 00:47:40;;;;;;;4.00;2.60;;;;;;;13.47;68.59;100294.91;10210210;29;20208;-75
2021/08/09 00:52:47;;;;;;;4.00;2.20;;;;;;;13.54;68.17;100298.69;10210380;29;20221;-76
2021/08/09 00:57:51;;;;;;;5.38;2.47;;;;;;;13.53;68.49;100290.75;10209744;29;20213;-75
2021/08/09 01:03:01;;;;;;;4.68;3.10;;;;;;;13.46;68.51;100295.88;10210471;29;20316;-75
2021/08/09 01:08:14;;;;;;;3.63;2.80;;;;;;;13.46;68.52;100298.56;10209484;29;20229;-75
2021/08/09 01:13:25;;;;;;;5.38;2.90;;;;;;;13.46;68.73;100290.47;10209572;29;20229;-76
2021/08/09 01:18:33;;;;;;;4.25;2.28;;;;;;;13.53;68.46;100298.84;10209331;29;20201;-75
2021/08/09 01:23:46;;;;;;;3.45;2.50;;;;;;;13.58;68.46;100305.53;10209321;29;20237;-75
2021/08/09 01:28:55;;;;;;;4.60;2.53;;;;;;;13.41;69.07;100298.16;10208336;28;20240;-75
2021/08/09 01:34:00;;;;;;;6.25;2.60;;;;;;;13.59;68.39;100303.66;10208409;29;20260;-75
2021/08/09 01:39:05;;;;;;;5.53;3.00;;;;;;;13.78;68.14;100300.06;10209145;29;20201;-75
2021/08/09 01:44:12;;;;;;;4.30;2.40;;;;;;;13.82;67.89;100310.44;10208395;29;20303;-75
2021/08/09 01:49:16;;;;;;;3.97;2.95;;;;;;;13.80;67.91;100311.56;10225973;29;20718;-75
2021/08/09 01:54:20;;;;;;;4.07;2.72;;;;;;;13.86;67.61;100306.44;10207914;29;20644;-75
2021/08/09 01:59:25;;;;;;;5.10;2.30;;;;;;;13.95;67.52;100312.78;10208306;29;20276;-75
2021/08/09 02:04:29;;;;;;;4.88;2.90;;;;;;;13.83;67.77;100317.53;10207642;29;20233;-76
2021/08/09 02:09:32;;;;;;;5.30;2.65;;;;;;;13.90;67.72;100315.94;10208056;29;20216;-75
2021/08/09 02:14:42;;;;;;;3.35;2.53;;;;;;;13.93;67.33;100312.06;10207872;29;20221;-75
2021/08/09 02:19:49;;;;;;;2.92;2.40;;;;;;;13.70;68.04;100308.88;10224956;29;20249;-75
2021/08/09 02:24:59;;;;;;;3.67;2.47;;;;;;;13.77;67.72;100312.72;10207515;29;20225;-75
2021/08/09 02:30:05;;;;;;;2.92;2.33;;;;;;;13.67;68.33;100317.28;10207818;29;20210;-75
2021/08/09 02:35:11;;;;;;;3.80;2.45;;;;;;;13.53;68.56;100315.91;10207464;29;20213;-75
2021/08/09 02:40:18;;;;;;;3.80;2.40;;;;;;;13.53;68.65;100315.91;10210903;29;20215;-75
2021/08/09 02:45:23;;;;;;;4.95;3.00;;;;;;;13.59;68.64;100317.16;10230060;29;20319;-76
2021/08/09 02:50:27;;;;;;;4.32;2.67;;;;;;;13.54;68.56;100330.22;10214758;29;20218;-75
2021/08/09 02:55:31;;;;;;;4.10;3.22;;;;;;;13.44;68.85;100325.72;10230730;29;20243;-75
2021/08/09 03:00:37;;;;;;;5.90;3.08;;;;;;;13.36;69.39;100327.41;10231871;29;20196;-74
2021/08/09 03:05:41;;;;;;;7.35;3.40;;;;;;;13.27;69.71;100327.28;10213041;29;20326;-75
2021/08/09 03:10:44;;;;;;;5.07;3.55;;;;;;;13.23;69.97;100336.63;10213567;29;20209;-74
2021/08/09 03:15:49;;;;;;;4.30;2.65;;;;;;;13.16;70.18;100340.03;10215897;28;20240;-75
2021/08/09 03:20:53;;;;;;;4.93;3.00;;;;;;;13.09;70.44;100342.47;10216746;28;20200;-75
2021/08/09 03:25:56;;;;;;;5.32;2.78;;;;;;;13.08;70.62;100339.88;10232354;28;20321;-74
2021/08/09 03:31:03;;;;;;;7.03;3.58;;;;;;;13.00;70.80;100349.56;10217422;29;20198;-74
2021/08/09 03:36:07;;;;;;;6.82;2.75;;;;;;;12.98;71.07;100356.06;10216607;29;20236;-74
2021/08/09 03:41:11;;;;;;;3.25;2.75;;;;;;;12.97;70.97;100352.53;10216032;29;20679;-73
2021/08/09 03:46:15;;;;;;;6.72;3.03;;;;;;;12.96;71.14;100344.56;10232864;28;20214;-74
2021/08/09 03:51:18;;;;;;;3.50;2.50;;;;;;;12.96;71.25;100352.66;10215341;29;20620;-75
2021/08/09 03:56:21;;;;;;;4.47;3.20;;;;;;;12.97;71.31;100355.22;10214984;29;20281;-74
2021/08/09 04:01:26;;;;;;;7.68;3.20;;;;;;;12.99;71.29;100344.28;10215179;29;20201;-75
2021/08/09 04:06:29;;;;;;;7.15;3.47;;;;;;;13.06;71.18;100350.84;10214615;29;20225;-75
2021/08/09 04:11:32;;;;;;;8.77;4.10;;;;;;;13.11;71.12;100353.09;10232115;29;20193;-75
2021/08/09 04:16:37;;;;;;;5.65;3.15;;;;;;;13.15;71.02;100360.75;10214420;29;20515;-75
2021/08/09 04:21:40;;;;;;;9.68;3.33;;;;;;;13.23;70.71;100365.44;10215732;29;20205;-75
2021/08/09 04:26:43;;;;;;;4.05;2.95;;;;;;;13.32;70.48;100364.59;10229939;29;20245;-75
2021/08/09 04:31:49;;;;;;;5.30;2.80;;;;;;;13.36;70.57;100357.09;10235932;29;20201;-75
2021/08/09 04:36:52;;;;;;;7.80;3.00;;;;;;;13.47;70.23;100354.25;10237481;29;20197;-75
2021/08/09 04:41:55;;;;;;;4.40;2.88;;;;;;;13.57;70.13;100356.94;10220275;28;20225;-75
2021/08/09 04:47:16;;;;;;;3.33;2.88;;;;;;;13.65;69.72;100357.06;10219789;28;20683;-76
2021/08/09 04:52:19;;;;;;;4.97;3.15;;;;;;;13.70;69.49;100360.19;10233897;29;20218;-75
2021/08/09 04:57:22;;;;;;;7.35;3.80;;;;;;;13.73;69.55;100365.28;10217479;29;20197;-74
2021/08/09 05:02:27;;;;;;;6.30;3.08;;;;;;;13.76;69.34;100374.94;10215150;29;20654;-75
2021/08/09 05:07:30;;;;;;;5.53;2.85;;;;;;;13.78;69.03;100373.81;10216567;29;20205;-74
2021/08/09 05:12:33;;;;;;;7.38;3.00;;;;;;;13.86;68.76;100375.78;10215894;29;20221;-75
2021/08/09 05:17:39;;;;;;;3.78;2.70;;;;;;;13.87;69.02;100383.72;10216023;29;20258;-76
2021/08/09 05:22:42;;;;;;;6.95;3.30;;;;;;;13.88;68.90;100369.25;10214230;29;20236;-74
2021/08/09 05:27:45;;;;;;;4.72;3.15;;;;;;;13.85;68.98;100376.75;10229468;29;20207;-74
2021/08/09 05:32:50;;;;;;;4.53;2.80;;;;;;;14.07;68.62;100376.44;10231331;29;20324;-74
2021/08/09 05:37:53;;;;;;;7.43;3.10;;;;;;;14.11;67.84;100390.47;10236381;29;20193;-74
2021/08/09 05:42:56;;;;;;;3.53;2.72;;;;;;;14.25;67.99;100395.41;10212106;29;20222;-74
2021/08/09 05:48:02;;;;;;;6.45;2.30;;;;;;;14.33;67.86;100406.31;10211559;29;20234;-74
2021/08/09 05:53:05;;;;;;;6.45;2.55;;;;;;;14.46;66.73;100413.28;10211736;29;20220;-74
2021/08/09 05:58:10;;;;;;;3.15;2.50;;;;;;;14.66;66.56;100414.88;10227396;29;20203;-75
2021/08/09 06:03:18;;;;;;;3.40;2.63;;;;;;;14.63;66.33;100425.16;10228056;29;20269;-75
2021/08/09 06:08:29;;;;;;;5.15;2.80;;;;;;;14.65;66.42;100413.19;10211759;29;20815;-74
2021/08/09 06:13:34;;;;;;;5.90;2.80;;;;;;;14.74;66.12;100422.25;10229947;29;20213;-76
2021/08/09 06:18:39;;;;;;;4.75;2.53;;;;;;;14.62;66.27;100420.72;10234575;29;20209;-76
2021/08/09 06:23:44;;;;;;;6.82;3.17;;;;;;;14.63;66.43;100426.00;10218984;28;20244;-75
2021/08/09 06:28:51;;;;;;;4.20;2.88;;;;;;;14.94;66.14;100441.91;10218610;29;20213;-74
2021/08/09 06:33:56;;;;;;;3.25;2.40;;;;;;;15.21;64.78;100435.63;10218471;29;20224;-74
2021/08/09 06:39:06;;;;;;;4.90;2.72;;;;;;;15.35;64.34;100442.38;10218326;29;20218;-74
2021/08/09 06:44:10;;;;;;;4.15;2.40;;;;;;;15.34;63.73;100443.38;10217944;29;20735;-74
2021/08/09 06:49:15;;;;;;;4.05;2.35;;;;;;;15.36;64.08;100447.66;10218741;29;20256;-75
2021/08/09 06:54:20;;;;;;;5.38;2.65;;;;;;;15.34;64.32;100455.06;10233875;29;20217;-74
2021/08/09 06:59:23;;;;;;;5.72;2.55;;;;;;;15.39;64.05;100451.91;10216552;29;20201;-74
2021/08/09 07:04:28;;;;;;;5.63;2.63;;;;;;;15.59;63.18;100453.44;10217186;29;20665;-74
2021/08/09 07:09:31;;;;;;;2.80;2.17;;;;;;;16.11;61.74;100447.25;10217343;29;20197;-74
2021/08/09 07:14:36;;;;;;;3.38;2.70;;;;;;;16.28;61.28;100448.25;10217285;28;20569;-74
2021/08/09 07:19:41;;;;;;;3.47;2.05;;;;;;;16.53;61.08;100446.50;10216403;29;20711;-74
2021/08/09 07:24:45;;;;;;;6.40;2.80;;;;;;;16.71;59.86;100443.72;10216129;29;20735;-75
2021/08/09 07:29:48;;;;;;;4.15;1.95;;;;;;;16.78;59.76;100445.63;10232996;29;20643;-75
2021/08/09 07:34:53;;;;;;;4.57;2.60;;;;;;;17.12;57.85;100450.16;10231292;29;20706;-74
2021/08/09 07:39:56;;;;;;;4.35;1.90;;;;;;;17.46;58.01;100433.78;10215583;29;20289;-75
2021/08/09 07:45:00;;;;;;;6.03;2.40;;;;;;;17.81;56.25;100445.34;10214910;29;20249;-74
2021/08/09 07:50:07;;;;;;;3.28;2.10;;;;;;;16.73;58.97;100452.53;10232816;28;20705;-74
2021/08/09 07:55:10;;;;;;;4.13;1.95;;;;;;;16.46;59.89;100448.19;10214902;29;20213;-74
2021/08/09 08:00:15;;;;;;;3.45;1.95;;;;;;;16.21;60.56;100457.97;10231300;29;20746;-74
2021/08/09 08:05:23;;;;;;;5.78;2.10;;;;;;;16.32;61.43;100460.47;10214142;29;20229;-74
2021/08/09 08:10:27;;;;;;;4.60;2.35;;;;;;;16.69;59.61;100462.03;10215234;28;20198;-75
2021/08/09 08:15:30;;;;;;;4.20;2.40;;;;;;;16.85;59.02;100461.25;10214553;29;20293;-74
2021/08/09 08:20:35;;;;;;;3.95;2.28;;;;;;;16.72;59.40;100456.28;10230951;29;20225;-75
2021/08/09 08:25:38;;;;;;;3.53;1.88;;;;;;;17.25;57.77;100455.97;10229862;29;20699;-74
2021/08/09 08:30:42;;;;;;;4.82;2.22;;;;;;;17.43;57.18;100463.13;10214023;29;20197;-75
2021/08/09 08:35:50;;;;;;;3.70;1.90;;;;;;;17.36;56.34;100465.69;10212820;29;20217;-74
2021/08/09 08:40:57;;;;;;;3.72;1.80;;;;;;;17.27;56.45;100458.50;10230216;29;20725;-75
2021/08/09 08:46:04;;;;;;;4.22;2.10;;;;;;;17.25;57.67;100449.69;10228767;29;20583;-74
2021/08/09 08:51:10;;;;;;;3.42;2.00;;;;;;;17.33;56.43;100462.44;10213230;29;20205;-74
2021/08/09 08:56:13;;;;;;;4.18;2.10;;;;;;;18.22;53.85;100460.78;10230144;29;20221;-74
2021/08/09 09:01:38;;;;;;;4.80;1.77;;;;;;;18.93;52.35;100450.91;10236864;29;20198;-74
2021/08/09 09:06:44;;;;;;;6.35;2.10;;;;;;;18.43;52.72;100462.94;10232165;29;20235;-75
2021/08/09 09:11:47;;;;;;;4.88;2.20;;;;;;;18.48;53.73;100464.13;10230011;29;20692;-75
2021/08/09 09:16:51;;;;;;;3.33;1.85;;;;;;;18.47;53.15;100464.31;10230308;29;20667;-74
2021/08/09 09:21:55;;;;;;;3.05;2.00;;;;;;;18.13;54.47;100476.28;10229545;29;20221;-74
2021/08/09 09:26:59;;;;;;;4.80;2.30;;;;;;;18.24;54.88;100481.34;10230096;29;20213;-74
2021/08/09 09:32:14;;;;;;;4.65;2.05;;;;;;;17.81;55.48;100477.94;10230173;29;20244;-74
2021/08/09 09:37:26;;;;;;;3.95;2.35;;;;;;;17.97;55.33;100470.81;10229601;29;20322;-74
2021/08/09 09:42:34;;;;;;;3.85;1.67;;;;;;;17.93;56.28;100484.72;10229748;29;20239;-75
2021/08/09 09:47:37;;;;;;;2.25;2.00;;;;;;;18.20;55.46;100481.84;10229485;29;20261;-74
2021/08/09 09:52:45;;;;;;;3.65;2.17;;;;;;;18.72;54.33;100479.53;10228243;29;20227;-75
2021/08/09 09:57:48;;;;;;;6.40;2.45;;;;;;;19.19;53.49;100484.09;10229884;29;20197;-74
2021/08/09 10:02:51;;;;;;;2.85;2.28;;;;;;;18.63;54.33;100494.19;10212329;29;20729;-75
2021/08/09 10:07:58;;;;;;;3.03;2.13;;;;;;;18.57;54.63;100492.16;10228549;29;20229;-75
2021/08/09 10:13:01;;;;;;;3.47;2.22;;;;;;;18.56;54.77;100485.84;10229271;28;20249;-75
2021/08/09 10:18:04;;;;;;;3.22;1.83;;;;;;;19.07;54.09;100482.81;10228264;29;20194;-74
2021/08/09 10:23:09;;;;;;;5.45;2.38;;;;;;;19.78;50.94;100478.16;10229245;29;20216;-74
2021/08/09 10:28:12;;;;;;;4.03;2.17;;;;;;;20.97;48.82;100478.31;10228493;29;20213;-74
2021/08/09 10:33:48;;;;;;;3.15;2.13;;;;;;;22.08;45.81;100474.28;10228408;29;20565;-75
2021/08/09 10:38:54;;;;;;;4.03;1.98;;;;;;;20.77;47.56;100478.88;10229061;29;20200;-75
2021/08/09 10:44:28;;;;;;;4.00;2.08;;;;;;;20.45;48.13;100469.19;10228196;29;20217;-75
2021/08/09 10:49:58;;;;;;;3.38;2.20;;;;;;;20.62;48.41;100472.56;10227103;29;20220;-74
2021/08/09 10:55:45;;;;;;;2.50;1.70;;;;;;;21.29;47.42;100468.00;10210026;29;20614;-74
2021/08/09 11:00:56;;;;;;;2.72;1.75;;;;;;;21.13;47.09;100458.16;10230488;29;20193;-75
2021/08/09 11:05:59;;;;;;;4.30;1.80;;;;;;;21.27;47.04;100449.06;10233304;28;20229;-74
2021/08/09 11:11:06;;;;;;;2.20;1.70;;;;;;;20.70;47.69;100458.81;10236533;29;20190;-74
2021/08/09 11:16:11;;;;;;;4.05;1.45;;;;;;;21.40;46.02;100460.16;10232237;29;20214;-75
2021/08/09 11:21:14;;;;;;;3.35;2.05;;;;;;;21.16;46.25;100455.88;10231310;29;20221;-75
2021/08/09 11:26:19;;;;;;;3.75;1.83;;;;;;;20.60;47.88;100457.41;10230848;29;20221;-75
2021/08/09 11:31:24;;;;;;;2.42;1.52;;;;;;;21.57;46.09;100444.34;10231009;29;20193;-74
2021/08/09 11:36:27;;;;;;;2.83;1.77;;;;;;;21.40;46.20;100451.13;10230030;29;20221;-75
2021/08/09 11:41:32;;;;;;;4.20;1.85;;;;;;;20.30;46.73;100454.66;10231071;29;20272;-74
2021/08/09 11:46:45;;;;;;;4.07;2.15;;;;;;;19.83;48.80;100456.66;10229956;29;20264;-74
2021/08/09 11:51:48;;;;;;;3.75;1.80;;;;;;;19.54;50.11;100457.34;10230257;29;20201;-75
2021/08/09 11:56:53;;;;;;;3.25;1.63;;;;;;;19.00;52.56;100460.88;10229846;29;20676;-74
2021/08/09 12:02:07;;;;;;;1.92;1.48;;;;;;;18.51;52.96;100465.63;10230087;29;20224;-75
2021/08/09 12:07:19;;;;;;;5.10;1.90;;;;;;;18.58;51.72;100464.78;10229256;28;20260;-75
2021/08/09 12:12:23;;;;;;;4.63;1.85;;;;;;;19.01;51.21;100469.94;10229607;29;20269;-75
2021/08/09 12:17:30;;;;;;;4.05;1.73;;;;;;;19.86;50.13;100467.16;10213569;29;20204;-76
2021/08/09 12:22:35;;;;;;;2.75;1.98;;;;;;;21.37;46.42;100456.97;10213377;29;20237;-76
2021/08/09 12:27:45;;;;;;;4.53;1.88;;;;;;;22.41;44.18;100457.28;10213635;29;20269;-75
2021/08/09 12:33:01;;;;;;;1.95;1.40;;;;;;;22.28;42.96;100455.28;10229502;29;20426;-75
2021/08/09 12:38:09;;;;;;;2.78;1.70;;;;;;;21.25;45.76;100453.88;10211871;29;20541;-75
2021/08/09 12:43:14;;;;;;;3.78;2.03;;;;;;;21.17;45.99;100454.88;10229037;29;20229;-75
2021/08/09 12:48:18;;;;;;;3.10;1.98;;;;;;;21.30;46.06;100456.88;10229000;29;20212;-76
2021/08/09 12:53:21;;;;;;;2.53;1.52;;;;;;;20.89;45.72;100443.75;10229690;29;20216;-75
2021/08/09 12:58:24;;;;;;;4.07;1.70;;;;;;;21.23;46.94;100448.63;10229105;29;20612;-75
2021/08/09 13:03:28;;;;;;;3.95;1.80;;;;;;;21.67;45.03;100438.56;10229954;29;20729;-75
2021/08/09 13:08:32;;;;;;;2.50;1.50;;;;;;;22.94;41.13;100435.66;10230883;29;20221;-74
2021/08/09 13:13:36;;;;;;;2.38;1.40;;;;;;;23.51;39.20;100419.00;10214990;29;20312;-75
2021/08/09 13:18:41;;;;;;;3.65;1.75;;;;;;;22.29;41.56;100426.88;10230447;29;20208;-75
2021/08/09 13:23:43;;;;;;;4.43;1.90;;;;;;;22.38;41.98;100416.63;10230861;29;20217;-75
2021/08/09 13:28:46;;;;;;;4.05;1.67;;;;;;;22.08;42.66;100413.28;10230674;29;20213;-74
2021/08/09 13:33:51;;;;;;;2.83;1.88;;;;;;;21.28;43.09;100422.59;10230165;29;20250;-75
2021/08/09 13:38:54;;;;;;;2.00;1.50;;;;;;;21.49;43.71;100408.94;10229723;29;20192;-74
2021/08/09 13:43:57;;;;;;;2.63;1.52;;;;;;;21.28;44.78;100414.41;10212728;29;20221;-75
2021/08/09 13:49:01;;;;;;;3.45;1.70;;;;;;;22.18;43.09;100416.47;10228896;29;20213;-75
2021/08/09 13:54:04;;;;;;;2.78;1.55;;;;;;;21.45;44.46;100415.84;10228780;29;20270;-75
2021/08/09 13:59:07;;;;;;;2.83;1.23;;;;;;;20.90;43.99;100403.63;10216022;29;20583;-76
2021/08/09 14:04:11;;;;;;;2.83;1.52;;;;;;;22.29;41.72;100384.97;10231182;28;20225;-75
2021/08/09 14:09:16;;;;;;;6.05;1.33;;;;;;;23.12;38.48;100391.31;10230347;29;20209;-76
2021/08/09 14:14:19;;;;;;;2.55;1.60;;;;;;;23.53;39.13;100384.84;10212534;29;20232;-75
2021/08/09 14:19:23;;;;;;;2.40;1.42;;;;;;;23.55;40.79;100388.19;10212526;29;20229;-75
2021/08/09 14:24:29;;;;;;;3.10;1.35;;;;;;;24.31;38.29;100378.69;10229087;28;20240;-75
2021/08/09 14:29:32;;;;;;;4.18;1.70;;;;;;;22.21;40.91;100380.50;10212168;29;20217;-75
2021/08/09 14:34:38;;;;;;;2.00;1.70;;;;;;;21.10;43.09;100393.00;10213078;29;20622;-76
2021/08/09 14:39:52;;;;;;;2.58;1.40;;;;;;;20.55;45.45;100393.34;10218606;29;20271;-76
2021/08/09 14:44:55;;;;;;;2.97;1.65;;;;;;;18.88;55.28;100413.31;10218584;29;20345;-75
2021/08/09 14:49:59;;;;;;;2.92;2.00;;;;;;;17.68;59.62;100399.66;10218478;29;20328;-76
2021/08/09 14:55:03;;;;;;;3.13;2.13;;;;;;;17.51;60.45;100408.00;10234168;29;20221;-75
2021/08/09 15:00:08;;;;;;;1.88;1.77;;;;;;;18.61;59.11;100409.16;10218288;29;20275;-74
2021/08/09 15:05:41;;;;;;;4.55;1.70;;;;;;;19.16;54.03;100391.03;10168816;29;20600;-75
2021/08/09 15:10:45;;;;;;;2.25;1.90;;;;;;;19.90;53.56;100391.31;10218162;29;20201;-76
2021/08/09 15:15:48;;;;;;;3.80;2.28;;;;;;;20.17;52.88;100391.75;10234649;29;20218;-75
2021/08/09 15:20:52;;;;;;;3.60;2.00;;;;;;;20.20;54.10;100386.75;10218022;29;20205;-75
2021/08/09 15:25:55;;;;;;;3.60;1.92;;;;;;;20.74;52.63;100391.09;10233141;29;20221;-76
2021/08/09 15:30:58;;;;;;;4.20;2.00;;;;;;;21.55;50.46;100391.75;10234938;29;20198;-75
2021/08/09 15:36:02;;;;;;;4.20;2.00;;;;;;;22.22;47.25;100384.97;10233325;28;20339;-75
2021/08/09 15:41:05;;;;;;;3.65;2.05;;;;;;;22.81;45.87;100383.59;10233862;29;20198;-75
2021/08/09 15:46:10;;;;;;;4.45;2.35;;;;;;;21.64;46.96;100401.53;10232855;29;20295;-75
2021/08/09 15:51:14;;;;;;;3.95;1.48;;;;;;;21.45;44.22;100394.84;10234256;28;20584;-75
2021/08/09 15:56:17;;;;;;;3.92;1.50;;;;;;;22.41;42.54;100398.97;10236497;29;20225;-75
2021/08/09 16:01:20;;;;;;;4.22;1.50;;;;;;;22.25;40.82;100397.41;10219508;28;20300;-76
2021/08/09 16:06:25;;;;;;;4.50;1.58;;;;;;;22.17;41.10;100381.97;10236037;29;20217;-74
2021/08/09 16:11:28;;;;;;;5.53;1.50;;;;;;;22.23;39.85;100396.75;10233705;29;20204;-75
2021/08/09 16:16:50;;;;;;;1.83;1.52;;;;;;;22.42;40.06;100400.66;10233044;29;20209;-76
2021/08/09 16:21:54;;;;;;;1.73;1.20;;;;;;;22.21;40.39;100377.78;10216343;28;20205;-75
2021/08/09 16:26:58;;;;;;;4.75;1.80;;;;;;;21.61;42.28;100407.41;10232373;29;20213;-75
2021/08/09 16:32:01;;;;;;;2.50;1.30;;;;;;;20.92;43.62;100391.50;10232769;29;20264;-75
2021/08/09 16:37:05;;;;;;;3.83;1.42;;;;;;;20.56;44.58;100402.38;10231946;29;20203;-75
2021/08/09 16:42:08;;;;;;;5.80;1.40;;;;;;;20.23;44.91;100410.06;10234250;29;20228;-75
2021/08/09 16:47:11;;;;;;;1.75;1.23;;;;;;;20.11;45.35;100421.44;10231844;28;20225;-75
2021/08/09 16:52:15;;;;;;;1.92;1.40;;;;;;;20.31;45.40;100394.50;10232263;28;20550;-75
2021/08/09 16:57:26;;;;;;;2.00;1.25;;;;;;;19.97;45.04;100414.09;10229460;28;20309;-75
2021/08/09 17:02:32;;;;;;;2.22;1.40;;;;;;;20.15;44.95;100410.16;10214459;29;20272;-76
2021/08/09 17:07:36;;;;;;;2.50;1.40;;;;;;;21.20;43.18;100412.63;10230724;29;20228;-75
2021/08/09 17:12:39;;;;;;;4.22;1.50;;;;;;;22.36;41.46;100407.78;10231862;29;20216;-75
2021/08/09 17:17:43;;;;;;;3.55;1.45;;;;;;;23.19;39.94;100413.25;10215087;29;20193;-75
2021/08/09 17:22:47;;;;;;;1.63;1.30;;;;;;;21.76;42.64;100410.06;10253108;29;20215;-75
2021/08/09 17:27:51;;;;;;;3.42;1.70;;;;;;;21.22;43.74;100421.47;10255391;28;20565;-76
2021/08/09 17:32:55;;;;;;;3.85;1.85;;;;;;;20.07;45.97;100411.09;10245509;28;20777;-75
2021/08/09 17:38:02;;;;;;;2.53;1.60;;;;;;;19.20;48.07;100439.53;10243254;29;20675;-75
2021/08/09 17:43:05;;;;;;;2.80;1.77;;;;;;;19.65;47.60;100429.69;10239575;28;20217;-75
2021/08/09 17:48:08;;;;;;;3.90;1.63;;;;;;;20.16;46.32;100422.75;10236945;29;20221;-75
2021/08/09 17:53:12;;;;;;;2.80;1.35;;;;;;;20.44;45.59;100426.56;10238106;29;20225;-75
2021/08/09 17:58:15;;;;;;;1.83;1.48;;;;;;;19.24;48.62;100429.97;10235342;28;20193;-75
2021/08/09 18:03:18;;;;;;;2.28;1.88;;;;;;;18.97;49.32;100417.69;10215822;29;20318;-76
2021/08/09 18:08:22;;;;;;;2.90;1.75;;;;;;;18.92;49.75;100416.53;10234175;29;20304;-75
2021/08/09 18:13:25;;;;;;;4.43;1.60;;;;;;;18.78;50.34;100424.41;10247022;28;20217;-74
2021/08/09 18:18:28;;;;;;;3.28;1.88;;;;;;;18.56;51.06;100428.72;10246451;28;20197;-77
2021/08/09 18:23:41;;;;;;;3.95;1.70;;;;;;;18.52;51.51;100434.72;10247714;29;20217;-75
2021/08/09 18:28:44;;;;;;;1.58;1.40;;;;;;;18.38;51.66;100436.28;10246330;29;20209;-76
2021/08/09 18:33:47;;;;;;;1.30;1.20;;;;;;;18.22;52.17;100429.00;10228577;29;20276;-75
2021/08/09 18:38:51;;;;;;;2.17;1.50;;;;;;;18.14;52.71;100431.75;10246179;28;20193;-75
2021/08/09 18:43:55;;;;;;;1.83;1.65;;;;;;;18.12;53.10;100428.34;10245054;29;20627;-75
2021/08/09 18:48:59;;;;;;;1.85;1.50;;;;;;;17.87;53.72;100433.78;10243519;29;20216;-75
2021/08/09 18:54:03;;;;;;;2.50;1.50;;;;;;;17.91;53.34;100437.88;10241497;29;20224;-75
2021/08/09 18:59:06;;;;;;;3.05;1.73;;;;;;;17.69;54.11;100457.56;10241872;29;20196;-75
2021/08/09 19:04:10;;;;;;;3.20;1.60;;;;;;;17.65;54.07;100465.19;10254802;23;20228;-77
2021/08/09 19:09:15;;;;;;;1.77;1.40;;;;;;;17.69;54.13;100458.41;10245790;28;20216;-76
2021/08/09 19:14:18;;;;;;;2.15;1.45;;;;;;;17.47;54.37;100487.09;10241839;29;20230;-75
2021/08/09 19:19:21;;;;;;;4.72;1.80;;;;;;;17.24;54.69;100473.28;10237805;28;20198;-75
2021/08/09 19:24:29;;;;;;;2.65;1.85;;;;;;;17.27;54.95;100485.66;10230674;29;20642;-75
2021/08/09 19:29:33;;;;;;;2.45;1.98;;;;;;;16.99;56.00;100499.44;10231442;29;20722;-75
2021/08/09 19:34:36;;;;;;;3.25;1.92;;;;;;;16.93;56.62;100502.81;10230923;29;20213;-74
2021/08/09 19:39:41;;;;;;;3.70;2.20;;;;;;;16.51;57.92;100494.63;10231268;28;20189;-74
2021/08/09 19:44:44;;;;;;;2.72;2.13;;;;;;;16.42;57.69;100507.28;10230662;28;20315;-75
2021/08/09 19:49:47;;;;;;;2.72;1.73;;;;;;;16.54;57.32;100505.19;10230987;28;20209;-74
2021/08/09 19:54:51;;;;;;;2.50;1.90;;;;;;;16.34;57.84;100513.50;10230428;28;20213;-76
2021/08/09 19:59:54;;;;;;;3.47;2.08;;;;;;;16.42;57.47;100520.00;10230935;28;20228;-76
2021/08/09 20:04:57;;;;;;;4.60;2.20;;;;;;;15.96;58.49;100521.97;10229928;28;20646;-76
2021/08/09 20:10:02;;;;;;;4.75;2.00;;;;;;;16.09;57.87;100515.16;10229262;29;20647;-76
2021/08/09 20:15:06;;;;;;;2.65;1.80;;;;;;;16.02;57.63;100515.94;10230014;28;20217;-75
2021/08/09 20:20:10;;;;;;;2.92;2.00;;;;;;;15.97;58.10;100529.97;10229922;28;20717;-75
2021/08/09 20:25:15;;;;;;;4.20;1.92;;;;;;;15.92;57.85;100527.72;10229600;28;20224;-75
2021/08/09 20:30:17;;;;;;;3.50;2.40;;;;;;;15.60;58.81;100533.66;10230212;28;20300;-76
2021/08/09 20:35:20;;;;;;;3.58;2.10;;;;;;;15.59;59.06;100529.25;10227943;28;20233;-75
2021/08/09 20:40:25;;;;;;;4.20;2.03;;;;;;;15.55;59.28;100517.03;10229259;28;20252;-76
2021/08/09 20:45:28;;;;;;;2.90;2.00;;;;;;;15.40;59.76;100530.25;10227715;29;20229;-76
2021/08/09 20:50:32;;;;;;;4.47;2.03;;;;;;;15.36;60.20;100526.16;10231722;29;20261;-75
2021/08/09 20:55:37;;;;;;;3.08;1.75;;;;;;;15.21;61.39;100535.72;10233746;28;20241;-75
2021/08/09 21:00:40;;;;;;;1.77;1.55;;;;;;;15.05;62.15;100536.38;10229567;29;20231;-75
2021/08/09 21:05:43;;;;;;;3.70;2.42;;;;;;;15.06;62.27;100540.81;10230979;28;20316;-74
2021/08/09 21:10:47;;;;;;;3.35;1.80;;;;;;;15.08;62.54;100543.34;10231229;28;20234;-76
2021/08/09 21:15:50;;;;;;;3.38;2.00;;;;;;;15.02;62.51;100545.66;10228699;28;20268;-77
2021/08/09 21:20:53;;;;;;;3.25;1.80;;;;;;;14.86;63.58;100541.88;10228398;28;20221;-75
2021/08/09 21:25:57;;;;;;;4.13;2.25;;;;;;;14.74;64.44;100541.22;10228064;28;20721;-75
2021/08/09 21:31:02;;;;;;;3.47;2.22;;;;;;;14.77;64.52;100544.47;10226464;29;20248;-76
2021/08/09 21:36:05;;;;;;;3.08;2.03;;;;;;;14.75;65.06;100538.34;10229084;28;20221;-75
2021/08/09 21:41:10;;;;;;;3.78;2.00;;;;;;;14.59;65.88;100544.41;10229643;28;20197;-76
2021/08/09 21:46:12;;;;;;;3.45;2.17;;;;;;;14.78;65.54;100543.50;10228618;28;20717;-75
2021/08/09 21:51:16;;;;;;;4.55;2.22;;;;;;;14.81;65.48;100543.19;10229805;28;20224;-75
2021/08/09 21:56:20;;;;;;;4.05;2.10;;;;;;;14.91;65.39;100545.00;10228617;29;20609;-75
2021/08/09 22:01:23;;;;;;;4.05;2.20;;;;;;;14.97;65.31;100542.53;10244329;28;20201;-76
2021/08/09 22:06:26;;;;;;;2.85;1.85;;;;;;;15.12;64.56;100548.31;10228245;28;20287;-76
2021/08/09 22:11:30;;;;;;;4.15;2.20;;;;;;;15.21;64.59;100541.16;10229416;28;20245;-75
2021/08/09 22:16:33;;;;;;;3.83;2.03;;;;;;;15.10;64.69;100544.06;10227964;29;20225;-75
2021/08/09 22:21:37;;;;;;;4.68;2.28;;;;;;;14.84;66.60;100552.88;10227230;29;20239;-75
2021/08/09 22:26:41;;;;;;;3.00;1.60;;;;;;;14.67;67.40;100540.94;10225171;28;20341;-75
2021/08/09 22:31:44;;;;;;;5.35;2.08;;;;;;;14.72;67.59;100535.09;10226300;28;20242;-76
2021/08/09 22:36:47;;;;;;;3.03;2.20;;;;;;;14.79;67.26;100528.97;10225223;28;20217;-75
2021/08/09 22:41:52;;;;;;;3.83;2.05;;;;;;;14.78;67.44;100532.66;10225945;28;20245;-76
2021/08/09 22:46:54;;;;;;;2.95;1.85;;;;;;;14.66;67.97;100525.72;10225659;28;20221;-75
2021/08/09 22:51:57;;;;;;;3.67;2.10;;;;;;;14.72;68.14;100530.53;10225194;28;20725;-75
2021/08/09 22:57:02;;;;;;;4.97;2.35;;;;;;;14.69;68.27;100520.03;10227888;28;20330;-75
2021/08/09 23:02:05;;;;;;;2.80;1.92;;;;;;;14.69;68.40;100527.28;10230381;29;20194;-76
2021/08/09 23:07:08;;;;;;;4.80;2.40;;;;;;;14.65;68.15;100518.63;10231350;28;20307;-76
2021/08/09 23:12:12;;;;;;;5.68;2.38;;;;;;;14.64;68.41;100519.59;10231268;28;20563;-75
2021/08/09 23:17:15;;;;;;;5.00;2.17;;;;;;;14.57;68.72;100513.09;10230865;28;20300;-76
2021/08/09 23:22:18;;;;;;;4.13;1.80;;;;;;;14.54;68.89;100511.53;10231246;28;20224;-76